»·PEaware :: N744CD KMCC-KTRK

N744CD :: KMCC-KTRK

FLIGHT INFORMATION

Flight Status: Arrived
Operator: Privately registered:
United States
More flights under this callsign
Pilot: Ron B. (24463)
Aircraft: Unknown
(0)
More flights by this aircraft type
Origin: KMCC McClellan
United States
Destination: KTRK Truckee-Tahoe
United States
More flights between these airports :: More routes between these airports
Route: ROZZY V392 TRUCK
File this flight plan on PilotEdge
Remarks:
Altitude:
(Current/Filed)
13,000ft
Speed:
(Current/Filed)
165kts
Departed: 02-Jun-19 06:48 PM
Arrived: 02-Jun-19 07:29 PM
Distance/Time
Traveled:
75nm/0:41
Distance/Time
To Go:
Arrived

Flight Plot

Page will automatically refresh every two minutes.

Flight plan parsing failed; only flown route is shown


Map Options




Map Legend


Flown Route
Filed Route
Departure Airport
Arrival Airport
Navaid (VOR, NDB)
Fix

Horizontal Profiles

Position Reports

Time Latitude Longitude Heading Altitude Ground
Speed
02-Jun-19 18:44 38.680897 -121.402521 0 73ft 0kts
02-Jun-19 18:45 38.680897 -121.402521 0 73ft 0kts
02-Jun-19 18:46 38.681081 -121.400588 186 73ft 24kts
02-Jun-19 18:47 38.660273 -121.400688 179 900ft 91kts
02-Jun-19 18:48 38.637966 -121.378526 109 1594ft 148kts
02-Jun-19 18:49 38.630659 -121.323763 60 2183ft 153kts
02-Jun-19 18:50 38.668536 -121.302703 18 3197ft 147kts
02-Jun-19 18:51 38.705390 -121.280566 30 4249ft 148kts
02-Jun-19 18:52 38.741230 -121.253432 30 5274ft 151kts
02-Jun-19 18:53 38.774839 -121.220642 37 6282ft 153kts
02-Jun-19 18:54 38.808397 -121.186880 37 7179ft 155kts
02-Jun-19 18:55 38.842661 -121.152375 37 8041ft 157kts
02-Jun-19 18:56 38.877196 -121.117554 37 8796ft 159kts
02-Jun-19 18:57 38.912123 -121.082292 37 9523ft 161kts
02-Jun-19 18:58 38.947525 -121.046502 37 10240ft 163kts
02-Jun-19 18:59 38.983316 -121.010272 37 10944ft 164kts
02-Jun-19 19:00 39.019416 -120.973681 37 11636ft 166kts
02-Jun-19 19:01 39.055780 -120.936773 37 12314ft 168kts
02-Jun-19 19:02 39.092702 -120.899246 38 12983ft 170kts
02-Jun-19 19:03 39.131358 -120.859913 38 13069ft 186kts
02-Jun-19 19:05 39.172352 -120.818134 38 13064ft 189kts
02-Jun-19 19:06 39.213438 -120.776192 38 13063ft 189kts
02-Jun-19 19:07 39.254715 -120.733989 38 13063ft 189kts
02-Jun-19 19:08 39.295846 -120.691870 38 13063ft 189kts
02-Jun-19 19:09 39.334904 -120.646827 54 13004ft 192kts
02-Jun-19 19:10 39.370424 -120.591091 49 12337ft 204kts
02-Jun-19 19:11 39.407459 -120.535632 49 11759ft 203kts
02-Jun-19 19:12 39.443331 -120.481865 49 11561ft 190kts
02-Jun-19 19:13 39.477505 -120.430554 49 11563ft 186kts
02-Jun-19 19:14 39.511195 -120.379892 49 11564ft 186kts
02-Jun-19 19:15 39.554666 -120.376676 327 11273ft 190kts
02-Jun-19 19:16 39.599806 -120.412741 328 10861ft 185kts
02-Jun-19 19:17 39.634766 -120.453197 268 10852ft 167kts
02-Jun-19 19:18 39.603644 -120.457236 106 10861ft 159kts
02-Jun-19 19:19 39.588558 -120.404740 142 10865ft 158kts
02-Jun-19 19:20 39.551485 -120.373874 148 10864ft 159kts
02-Jun-19 19:21 39.514993 -120.345066 148 10862ft 149kts
02-Jun-19 19:22 39.478992 -120.316676 148 10318ft 153kts
02-Jun-19 19:22 39.449694 -120.293523 148 9791ft 135kts
02-Jun-19 19:24 39.420166 -120.263895 139 9016ft 107kts
02-Jun-19 19:25 39.398469 -120.240373 139 8332ft 99kts
02-Jun-19 19:25 39.376429 -120.218300 146 8198ft 142kts
02-Jun-19 19:26 39.344197 -120.190517 148 7323ft 127kts
02-Jun-19 19:28 39.325188 -120.153515 120 5924ft 89kts
02-Jun-19 19:28 39.321825 -120.146230 135 5893ft 11kts
02-Jun-19 19:29 39.320399 -120.144634 120 5893ft 7kts
02-Jun-19 19:30 39.318810 -120.141105 120 5891ft 12kts
02-Jun-19 19:31 39.317501 -120.138174 117 5890ft 8kts
02-Jun-19 19:32 39.315799 -120.134386 116 5886ft 0kts
02-Jun-19 19:33 39.315799 -120.134386 116 5886ft 0kts
02-Jun-19 19:34 39.315799 -120.134386 116 5886ft 0kts
02-Jun-19 19:35 39.315799 -120.134386 116 5886ft 0kts
02-Jun-19 19:36 39.315799 -120.134386 116 5886ft 0kts
02-Jun-19 19:37 39.315799 -120.134386 116 5886ft 0kts
02-Jun-19 19:38 39.316711 -120.134572 302 5887ft 46kts
02-Jun-19 19:39 39.331675 -120.159544 313 6800ft 105kts
02-Jun-19 19:40 39.362332 -120.162413 49 7742ft 139kts
02-Jun-19 19:41 39.396408 -120.141271 17 9035ft 140kts
02-Jun-19 19:42 39.433904 -120.126173 16 10299ft 143kts

Navigation Log

Ident Type
Flight plan parsing failed, navigation log unavailable